sensor_id;sensor_type;location;lat;lon;timestamp;P1;durP1;ratioP1;P2;durP2;ratioP2
42036;SDS011;75222;52.004;5.908;2024-03-17T00:01:44;1.45;;;1.30;;
42036;SDS011;75222;52.004;5.908;2024-03-17T00:04:09;2.10;;;1.40;;
42036;SDS011;75222;52.004;5.908;2024-03-17T00:06:35;1.60;;;1.30;;
42036;SDS011;75222;52.004;5.908;2024-03-17T00:09:00;1.50;;;1.30;;
42036;SDS011;75222;52.004;5.908;2024-03-17T00:11:32;1.75;;;1.38;;
42036;SDS011;75222;52.004;5.908;2024-03-17T00:13:58;2.88;;;1.55;;
42036;SDS011;75222;52.004;5.908;2024-03-17T00:16:23;1.40;;;1.30;;
42036;SDS011;75222;52.004;5.908;2024-03-17T00:18:49;3.60;;;1.58;;
42036;SDS011;75222;52.004;5.908;2024-03-17T00:21:15;2.10;;;1.50;;
42036;SDS011;75222;52.004;5.908;2024-03-17T00:23:40;2.40;;;1.70;;
42036;SDS011;75222;52.004;5.908;2024-03-17T00:26:06;2.15;;;1.42;;
42036;SDS011;75222;52.004;5.908;2024-03-17T00:28:32;3.67;;;1.55;;
42036;SDS011;75222;52.004;5.908;2024-03-17T00:30:57;2.75;;;1.42;;
42036;SDS011;75222;52.004;5.908;2024-03-17T00:33:23;2.97;;;1.63;;
42036;SDS011;75222;52.004;5.908;2024-03-17T00:35:49;3.13;;;1.58;;
42036;SDS011;75222;52.004;5.908;2024-03-17T00:38:15;1.67;;;1.20;;
42036;SDS011;75222;52.004;5.908;2024-03-17T00:40:40;2.17;;;1.48;;
42036;SDS011;75222;52.004;5.908;2024-03-17T00:43:06;1.88;;;1.40;;
42036;SDS011;75222;52.004;5.908;2024-03-17T00:45:32;2.35;;;1.40;;
42036;SDS011;75222;52.004;5.908;2024-03-17T00:47:58;2.28;;;1.50;;
42036;SDS011;75222;52.004;5.908;2024-03-17T00:50:23;1.38;;;1.20;;
42036;SDS011;75222;52.004;5.908;2024-03-17T00:52:49;1.60;;;1.35;;
42036;SDS011;75222;52.004;5.908;2024-03-17T00:55:15;2.10;;;1.60;;
42036;SDS011;75222;52.004;5.908;2024-03-17T00:57:41;2.70;;;1.58;;
42036;SDS011;75222;52.004;5.908;2024-03-17T01:00:07;1.63;;;1.52;;
42036;SDS011;75222;52.004;5.908;2024-03-17T01:02:36;1.92;;;1.50;;
42036;SDS011;75222;52.004;5.908;2024-03-17T01:05:02;2.47;;;1.55;;
42036;SDS011;75222;52.004;5.908;2024-03-17T01:07:30;2.63;;;1.50;;
42036;SDS011;75222;52.004;5.908;2024-03-17T01:09:56;2.40;;;1.60;;
42036;SDS011;75222;52.004;5.908;2024-03-17T01:12:22;2.70;;;1.73;;
42036;SDS011;75222;52.004;5.908;2024-03-17T01:14:47;2.67;;;1.60;;
42036;SDS011;75222;52.004;5.908;2024-03-17T01:17:13;1.65;;;1.55;;
42036;SDS011;75222;52.004;5.908;2024-03-17T01:19:38;2.38;;;1.58;;
42036;SDS011;75222;52.004;5.908;2024-03-17T01:22:04;1.70;;;1.60;;
42036;SDS011;75222;52.004;5.908;2024-03-17T01:24:29;3.47;;;1.80;;
42036;SDS011;75222;52.004;5.908;2024-03-17T01:26:56;3.38;;;1.73;;
42036;SDS011;75222;52.004;5.908;2024-03-17T01:29:26;2.80;;;1.90;;
42036;SDS011;75222;52.004;5.908;2024-03-17T01:31:52;2.30;;;1.90;;
42036;SDS011;75222;52.004;5.908;2024-03-17T01:34:18;3.22;;;1.95;;
42036;SDS011;75222;52.004;5.908;2024-03-17T01:36:44;3.53;;;2.20;;
42036;SDS011;75222;52.004;5.908;2024-03-17T01:39:09;3.35;;;1.88;;
42036;SDS011;75222;52.004;5.908;2024-03-17T01:41:36;3.65;;;2.13;;
42036;SDS011;75222;52.004;5.908;2024-03-17T01:44:02;3.58;;;2.20;;
42036;SDS011;75222;52.004;5.908;2024-03-17T01:46:27;2.78;;;1.92;;
42036;SDS011;75222;52.004;5.908;2024-03-17T01:48:53;1.98;;;1.73;;
42036;SDS011;75222;52.004;5.908;2024-03-17T01:51:19;3.47;;;1.70;;
42036;SDS011;75222;52.004;5.908;2024-03-17T01:53:46;3.10;;;1.77;;
42036;SDS011;75222;52.004;5.908;2024-03-17T01:56:12;3.83;;;1.90;;
42036;SDS011;75222;52.004;5.908;2024-03-17T01:58:41;2.85;;;1.85;;
42036;SDS011;75222;52.004;5.908;2024-03-17T02:01:09;2.15;;;1.52;;
42036;SDS011;75222;52.004;5.908;2024-03-17T02:03:35;2.15;;;1.95;;
42036;SDS011;75222;52.004;5.908;2024-03-17T02:06:01;2.25;;;1.70;;
42036;SDS011;75222;52.004;5.908;2024-03-17T02:08:26;2.08;;;1.70;;
42036;SDS011;75222;52.004;5.908;2024-03-17T02:10:55;2.58;;;1.65;;
42036;SDS011;75222;52.004;5.908;2024-03-17T02:13:21;2.10;;;1.60;;
42036;SDS011;75222;52.004;5.908;2024-03-17T02:15:47;2.60;;;1.67;;
42036;SDS011;75222;52.004;5.908;2024-03-17T02:18:13;4.53;;;2.00;;
42036;SDS011;75222;52.004;5.908;2024-03-17T02:20:39;2.55;;;1.90;;
42036;SDS011;75222;52.004;5.908;2024-03-17T02:23:20;3.70;;;1.85;;
42036;SDS011;75222;52.004;5.908;2024-03-17T02:25:45;3.13;;;1.60;;
42036;SDS011;75222;52.004;5.908;2024-03-17T02:28:12;1.88;;;1.50;;
42036;SDS011;75222;52.004;5.908;2024-03-17T02:30:38;4.07;;;1.88;;
42036;SDS011;75222;52.004;5.908;2024-03-17T02:33:04;2.17;;;1.80;;
42036;SDS011;75222;52.004;5.908;2024-03-17T02:35:29;3.65;;;2.10;;
42036;SDS011;75222;52.004;5.908;2024-03-17T02:37:55;2.83;;;1.60;;
42036;SDS011;75222;52.004;5.908;2024-03-17T02:40:20;2.08;;;1.67;;
42036;SDS011;75222;52.004;5.908;2024-03-17T02:42:46;3.25;;;2.15;;
42036;SDS011;75222;52.004;5.908;2024-03-17T02:45:12;2.50;;;1.83;;
42036;SDS011;75222;52.004;5.908;2024-03-17T02:47:37;3.35;;;2.00;;
42036;SDS011;75222;52.004;5.908;2024-03-17T02:50:03;3.17;;;1.90;;
42036;SDS011;75222;52.004;5.908;2024-03-17T02:52:29;2.45;;;2.05;;
42036;SDS011;75222;52.004;5.908;2024-03-17T02:54:55;3.53;;;2.13;;
42036;SDS011;75222;52.004;5.908;2024-03-17T02:57:22;3.65;;;2.00;;
42036;SDS011;75222;52.004;5.908;2024-03-17T02:59:49;2.35;;;1.75;;
42036;SDS011;75222;52.004;5.908;2024-03-17T03:02:16;2.53;;;1.90;;
42036;SDS011;75222;52.004;5.908;2024-03-17T03:04:42;2.67;;;1.70;;
42036;SDS011;75222;52.004;5.908;2024-03-17T03:07:08;2.42;;;1.80;;
42036;SDS011;75222;52.004;5.908;2024-03-17T03:09:33;2.38;;;1.83;;
42036;SDS011;75222;52.004;5.908;2024-03-17T03:11:59;1.85;;;1.60;;
42036;SDS011;75222;52.004;5.908;2024-03-17T03:14:27;3.70;;;1.77;;
42036;SDS011;75222;52.004;5.908;2024-03-17T03:16:53;2.00;;;1.80;;
42036;SDS011;75222;52.004;5.908;2024-03-17T03:19:18;3.10;;;2.00;;
42036;SDS011;75222;52.004;5.908;2024-03-17T03:21:44;2.35;;;2.05;;
42036;SDS011;75222;52.004;5.908;2024-03-17T03:24:10;2.72;;;2.13;;
42036;SDS011;75222;52.004;5.908;2024-03-17T03:26:37;3.38;;;2.35;;
42036;SDS011;75222;52.004;5.908;2024-03-17T03:29:03;2.53;;;2.00;;
42036;SDS011;75222;52.004;5.908;2024-03-17T03:31:30;3.00;;;2.13;;
42036;SDS011;75222;52.004;5.908;2024-03-17T03:33:59;3.58;;;2.50;;
42036;SDS011;75222;52.004;5.908;2024-03-17T03:36:28;3.65;;;2.47;;
42036;SDS011;75222;52.004;5.908;2024-03-17T03:38:54;3.45;;;2.30;;
42036;SDS011;75222;52.004;5.908;2024-03-17T03:41:22;2.40;;;2.10;;
42036;SDS011;75222;52.004;5.908;2024-03-17T03:43:48;3.30;;;2.00;;
42036;SDS011;75222;52.004;5.908;2024-03-17T03:46:14;2.55;;;2.10;;
42036;SDS011;75222;52.004;5.908;2024-03-17T03:48:40;2.88;;;2.28;;
42036;SDS011;75222;52.004;5.908;2024-03-17T03:51:06;3.83;;;2.42;;
42036;SDS011;75222;52.004;5.908;2024-03-17T03:53:33;2.90;;;2.40;;
42036;SDS011;75222;52.004;5.908;2024-03-17T03:55:59;2.28;;;1.92;;
42036;SDS011;75222;52.004;5.908;2024-03-17T03:58:31;3.35;;;2.45;;
42036;SDS011;75222;52.004;5.908;2024-03-17T04:01:00;3.78;;;2.10;;
42036;SDS011;75222;52.004;5.908;2024-03-17T04:03:29;3.33;;;2.47;;
42036;SDS011;75222;52.004;5.908;2024-03-17T04:06:04;3.25;;;2.50;;
42036;SDS011;75222;52.004;5.908;2024-03-17T04:08:34;3.97;;;2.85;;
42036;SDS011;75222;52.004;5.908;2024-03-17T04:11:04;3.60;;;2.40;;
42036;SDS011;75222;52.004;5.908;2024-03-17T04:13:30;3.50;;;2.70;;
42036;SDS011;75222;52.004;5.908;2024-03-17T04:15:57;4.63;;;2.50;;
42036;SDS011;75222;52.004;5.908;2024-03-17T04:18:24;3.47;;;2.40;;
42036;SDS011;75222;52.004;5.908;2024-03-17T04:20:51;3.10;;;2.25;;
42036;SDS011;75222;52.004;5.908;2024-03-17T04:23:18;3.75;;;2.30;;
42036;SDS011;75222;52.004;5.908;2024-03-17T04:25:47;4.93;;;2.90;;
42036;SDS011;75222;52.004;5.908;2024-03-17T04:28:13;3.45;;;2.78;;
42036;SDS011;75222;52.004;5.908;2024-03-17T04:30:40;4.10;;;2.85;;
42036;SDS011;75222;52.004;5.908;2024-03-17T04:33:06;3.22;;;2.70;;
42036;SDS011;75222;52.004;5.908;2024-03-17T04:35:35;3.25;;;2.35;;
42036;SDS011;75222;52.004;5.908;2024-03-17T04:38:01;4.28;;;2.60;;
42036;SDS011;75222;52.004;5.908;2024-03-17T04:40:27;3.70;;;2.70;;
42036;SDS011;75222;52.004;5.908;2024-03-17T04:42:52;4.65;;;2.90;;
42036;SDS011;75222;52.004;5.908;2024-03-17T04:45:18;3.88;;;3.00;;
42036;SDS011;75222;52.004;5.908;2024-03-17T04:47:43;4.47;;;2.78;;
42036;SDS011;75222;52.004;5.908;2024-03-17T04:50:09;3.15;;;2.42;;
42036;SDS011;75222;52.004;5.908;2024-03-17T04:52:34;3.85;;;2.88;;
42036;SDS011;75222;52.004;5.908;2024-03-17T04:55:00;4.85;;;3.15;;
42036;SDS011;75222;52.004;5.908;2024-03-17T04:57:26;3.33;;;2.50;;
42036;SDS011;75222;52.004;5.908;2024-03-17T04:59:51;3.47;;;2.72;;
42036;SDS011;75222;52.004;5.908;2024-03-17T05:02:17;3.58;;;2.55;;
42036;SDS011;75222;52.004;5.908;2024-03-17T05:04:42;4.15;;;2.90;;
42036;SDS011;75222;52.004;5.908;2024-03-17T05:07:08;3.40;;;2.50;;
42036;SDS011;75222;52.004;5.908;2024-03-17T05:09:34;4.68;;;3.00;;
42036;SDS011;75222;52.004;5.908;2024-03-17T05:12:00;4.93;;;3.35;;
42036;SDS011;75222;52.004;5.908;2024-03-17T05:14:26;5.30;;;3.47;;
42036;SDS011;75222;52.004;5.908;2024-03-17T05:16:51;5.05;;;3.80;;
42036;SDS011;75222;52.004;5.908;2024-03-17T05:19:17;5.38;;;3.05;;
42036;SDS011;75222;52.004;5.908;2024-03-17T05:21:43;4.30;;;3.20;;
42036;SDS011;75222;52.004;5.908;2024-03-17T05:24:10;3.72;;;2.72;;
42036;SDS011;75222;52.004;5.908;2024-03-17T05:26:36;5.10;;;3.33;;
42036;SDS011;75222;52.004;5.908;2024-03-17T05:29:02;4.53;;;3.25;;
42036;SDS011;75222;52.004;5.908;2024-03-17T05:31:27;4.05;;;3.05;;
42036;SDS011;75222;52.004;5.908;2024-03-17T05:33:53;4.28;;;2.65;;
42036;SDS011;75222;52.004;5.908;2024-03-17T05:36:18;3.83;;;2.47;;
42036;SDS011;75222;52.004;5.908;2024-03-17T05:38:45;4.75;;;3.17;;
42036;SDS011;75222;52.004;5.908;2024-03-17T05:41:10;3.45;;;2.80;;
42036;SDS011;75222;52.004;5.908;2024-03-17T05:43:37;4.18;;;2.70;;
42036;SDS011;75222;52.004;5.908;2024-03-17T05:46:07;3.90;;;2.88;;
42036;SDS011;75222;52.004;5.908;2024-03-17T05:48:34;5.93;;;3.35;;
42036;SDS011;75222;52.004;5.908;2024-03-17T05:51:07;3.97;;;2.78;;
42036;SDS011;75222;52.004;5.908;2024-03-17T05:53:37;5.32;;;3.38;;
42036;SDS011;75222;52.004;5.908;2024-03-17T05:56:06;5.13;;;3.58;;
42036;SDS011;75222;52.004;5.908;2024-03-17T05:58:34;4.95;;;3.35;;
42036;SDS011;75222;52.004;5.908;2024-03-17T06:01:01;4.78;;;3.30;;
42036;SDS011;75222;52.004;5.908;2024-03-17T06:03:27;4.18;;;3.03;;
42036;SDS011;75222;52.004;5.908;2024-03-17T06:05:53;4.43;;;2.92;;
42036;SDS011;75222;52.004;5.908;2024-03-17T06:08:18;4.47;;;3.17;;
42036;SDS011;75222;52.004;5.908;2024-03-17T06:10:45;5.55;;;3.58;;
42036;SDS011;75222;52.004;5.908;2024-03-17T06:13:12;5.22;;;3.60;;
42036;SDS011;75222;52.004;5.908;2024-03-17T06:15:40;6.25;;;3.53;;
42036;SDS011;75222;52.004;5.908;2024-03-17T06:18:06;5.07;;;3.20;;
42036;SDS011;75222;52.004;5.908;2024-03-17T06:20:35;5.50;;;2.97;;
42036;SDS011;75222;52.004;5.908;2024-03-17T06:23:04;6.35;;;3.50;;
42036;SDS011;75222;52.004;5.908;2024-03-17T06:25:29;5.43;;;3.85;;
42036;SDS011;75222;52.004;5.908;2024-03-17T06:27:55;4.97;;;3.53;;
42036;SDS011;75222;52.004;5.908;2024-03-17T06:30:22;5.85;;;3.50;;
42036;SDS011;75222;52.004;5.908;2024-03-17T06:32:47;5.63;;;3.38;;
42036;SDS011;75222;52.004;5.908;2024-03-17T06:35:13;4.28;;;3.17;;
42036;SDS011;75222;52.004;5.908;2024-03-17T06:37:43;5.35;;;3.58;;
42036;SDS011;75222;52.004;5.908;2024-03-17T06:40:13;4.72;;;3.42;;
42036;SDS011;75222;52.004;5.908;2024-03-17T06:42:39;6.18;;;4.32;;
42036;SDS011;75222;52.004;5.908;2024-03-17T06:45:05;5.80;;;3.85;;
42036;SDS011;75222;52.004;5.908;2024-03-17T06:47:33;5.72;;;3.85;;
42036;SDS011;75222;52.004;5.908;2024-03-17T06:50:00;5.25;;;3.45;;
42036;SDS011;75222;52.004;5.908;2024-03-17T06:52:25;5.80;;;4.28;;
42036;SDS011;75222;52.004;5.908;2024-03-17T06:54:51;6.00;;;3.17;;
42036;SDS011;75222;52.004;5.908;2024-03-17T06:57:17;4.88;;;3.17;;
42036;SDS011;75222;52.004;5.908;2024-03-17T06:59:42;5.65;;;3.50;;
42036;SDS011;75222;52.004;5.908;2024-03-17T07:02:08;5.78;;;3.90;;
42036;SDS011;75222;52.004;5.908;2024-03-17T07:04:37;6.32;;;3.95;;
42036;SDS011;75222;52.004;5.908;2024-03-17T07:07:03;5.05;;;3.67;;
42036;SDS011;75222;52.004;5.908;2024-03-17T07:09:28;4.57;;;3.22;;
42036;SDS011;75222;52.004;5.908;2024-03-17T07:11:54;5.30;;;3.65;;
42036;SDS011;75222;52.004;5.908;2024-03-17T07:14:19;5.70;;;2.97;;
42036;SDS011;75222;52.004;5.908;2024-03-17T07:16:45;4.80;;;3.20;;
42036;SDS011;75222;52.004;5.908;2024-03-17T07:19:11;5.30;;;3.55;;
42036;SDS011;75222;52.004;5.908;2024-03-17T07:21:36;5.07;;;3.47;;
42036;SDS011;75222;52.004;5.908;2024-03-17T07:24:02;5.03;;;3.38;;
42036;SDS011;75222;52.004;5.908;2024-03-17T07:26:29;5.10;;;2.83;;
42036;SDS011;75222;52.004;5.908;2024-03-17T07:28:55;4.20;;;2.92;;
42036;SDS011;75222;52.004;5.908;2024-03-17T07:31:21;3.70;;;2.72;;
42036;SDS011;75222;52.004;5.908;2024-03-17T07:33:46;4.47;;;2.97;;
42036;SDS011;75222;52.004;5.908;2024-03-17T07:36:13;4.32;;;3.00;;
42036;SDS011;75222;52.004;5.908;2024-03-17T07:38:38;5.55;;;3.53;;
42036;SDS011;75222;52.004;5.908;2024-03-17T07:41:05;8.23;;;4.28;;
42036;SDS011;75222;52.004;5.908;2024-03-17T07:43:32;4.72;;;3.40;;
42036;SDS011;75222;52.004;5.908;2024-03-17T07:46:10;4.18;;;3.20;;
42036;SDS011;75222;52.004;5.908;2024-03-17T07:48:39;4.32;;;2.60;;
42036;SDS011;75222;52.004;5.908;2024-03-17T07:51:06;4.05;;;3.30;;
42036;SDS011;75222;52.004;5.908;2024-03-17T07:53:36;7.13;;;3.53;;
42036;SDS011;75222;52.004;5.908;2024-03-17T07:56:06;5.20;;;3.22;;
42036;SDS011;75222;52.004;5.908;2024-03-17T07:58:34;6.75;;;4.40;;
42036;SDS011;75222;52.004;5.908;2024-03-17T08:01:04;5.65;;;3.83;;
42036;SDS011;75222;52.004;5.908;2024-03-17T08:03:32;5.35;;;3.30;;
42036;SDS011;75222;52.004;5.908;2024-03-17T08:05:59;5.28;;;3.40;;
42036;SDS011;75222;52.004;5.908;2024-03-17T08:08:25;3.97;;;2.97;;
42036;SDS011;75222;52.004;5.908;2024-03-17T08:10:51;6.25;;;4.00;;
42036;SDS011;75222;52.004;5.908;2024-03-17T08:13:17;5.95;;;3.20;;
42036;SDS011;75222;52.004;5.908;2024-03-17T08:15:43;4.22;;;3.15;;
42036;SDS011;75222;52.004;5.908;2024-03-17T08:18:10;6.13;;;3.88;;
42036;SDS011;75222;52.004;5.908;2024-03-17T08:20:37;5.03;;;3.20;;
42036;SDS011;75222;52.004;5.908;2024-03-17T08:23:07;5.72;;;3.55;;
42036;SDS011;75222;52.004;5.908;2024-03-17T08:25:33;5.43;;;3.28;;
42036;SDS011;75222;52.004;5.908;2024-03-17T08:27:59;3.22;;;2.45;;
42036;SDS011;75222;52.004;5.908;2024-03-17T08:30:25;4.22;;;2.85;;
42036;SDS011;75222;52.004;5.908;2024-03-17T08:32:51;4.35;;;2.90;;
42036;SDS011;75222;52.004;5.908;2024-03-17T08:35:17;4.20;;;2.80;;
42036;SDS011;75222;52.004;5.908;2024-03-17T08:37:42;6.75;;;3.80;;
42036;SDS011;75222;52.004;5.908;2024-03-17T08:40:09;5.18;;;2.80;;
42036;SDS011;75222;52.004;5.908;2024-03-17T08:42:35;3.60;;;2.45;;
42036;SDS011;75222;52.004;5.908;2024-03-17T08:45:01;3.10;;;2.22;;
42036;SDS011;75222;52.004;5.908;2024-03-17T08:47:27;3.78;;;2.08;;
42036;SDS011;75222;52.004;5.908;2024-03-17T08:49:53;3.25;;;2.20;;
42036;SDS011;75222;52.004;5.908;2024-03-17T08:52:19;4.07;;;2.78;;
42036;SDS011;75222;52.004;5.908;2024-03-17T08:54:48;4.10;;;3.05;;
42036;SDS011;75222;52.004;5.908;2024-03-17T08:57:16;4.07;;;2.63;;
42036;SDS011;75222;52.004;5.908;2024-03-17T08:59:45;3.22;;;2.55;;
42036;SDS011;75222;52.004;5.908;2024-03-17T09:02:11;4.25;;;2.60;;
42036;SDS011;75222;52.004;5.908;2024-03-17T09:04:41;4.75;;;2.60;;
42036;SDS011;75222;52.004;5.908;2024-03-17T09:07:07;3.00;;;2.42;;
42036;SDS011;75222;52.004;5.908;2024-03-17T09:09:33;3.97;;;2.60;;
42036;SDS011;75222;52.004;5.908;2024-03-17T09:11:58;3.70;;;2.42;;
42036;SDS011;75222;52.004;5.908;2024-03-17T09:14:24;3.40;;;2.28;;
42036;SDS011;75222;52.004;5.908;2024-03-17T09:16:50;4.43;;;2.42;;
42036;SDS011;75222;52.004;5.908;2024-03-17T09:19:15;3.78;;;2.72;;
42036;SDS011;75222;52.004;5.908;2024-03-17T09:21:41;4.32;;;2.50;;
42036;SDS011;75222;52.004;5.908;2024-03-17T09:24:07;4.05;;;2.60;;
42036;SDS011;75222;52.004;5.908;2024-03-17T09:26:33;2.78;;;2.10;;
42036;SDS011;75222;52.004;5.908;2024-03-17T09:28:59;3.85;;;2.28;;
42036;SDS011;75222;52.004;5.908;2024-03-17T09:31:25;2.78;;;1.70;;
42036;SDS011;75222;52.004;5.908;2024-03-17T09:33:50;2.97;;;1.83;;
42036;SDS011;75222;52.004;5.908;2024-03-17T09:36:16;5.25;;;3.30;;
42036;SDS011;75222;52.004;5.908;2024-03-17T09:38:43;5.35;;;2.65;;
42036;SDS011;75222;52.004;5.908;2024-03-17T09:41:22;3.47;;;2.28;;
42036;SDS011;75222;52.004;5.908;2024-03-17T09:43:54;3.38;;;2.30;;
42036;SDS011;75222;52.004;5.908;2024-03-17T09:46:22;4.05;;;2.40;;
42036;SDS011;75222;52.004;5.908;2024-03-17T09:48:49;3.30;;;2.30;;
42036;SDS011;75222;52.004;5.908;2024-03-17T09:51:19;3.70;;;2.22;;
42036;SDS011;75222;52.004;5.908;2024-03-17T09:53:50;4.55;;;3.28;;
42036;SDS011;75222;52.004;5.908;2024-03-17T09:56:17;4.78;;;3.10;;
42036;SDS011;75222;52.004;5.908;2024-03-17T09:58:47;3.35;;;2.38;;
42036;SDS011;75222;52.004;5.908;2024-03-17T10:01:14;3.85;;;2.42;;
42036;SDS011;75222;52.004;5.908;2024-03-17T10:03:40;3.28;;;2.33;;
42036;SDS011;75222;52.004;5.908;2024-03-17T10:06:28;2.38;;;1.85;;
42036;SDS011;75222;52.004;5.908;2024-03-17T10:08:55;3.35;;;2.58;;
42036;SDS011;75222;52.004;5.908;2024-03-17T10:11:22;4.68;;;2.97;;
42036;SDS011;75222;52.004;5.908;2024-03-17T10:13:58;4.78;;;2.60;;
42036;SDS011;75222;52.004;5.908;2024-03-17T10:16:26;4.50;;;2.92;;
42036;SDS011;75222;52.004;5.908;2024-03-17T10:19:13;2.97;;;2.30;;
42036;SDS011;75222;52.004;5.908;2024-03-17T10:21:41;3.83;;;3.00;;
42036;SDS011;75222;52.004;5.908;2024-03-17T10:26:43;5.38;;;3.58;;
42036;SDS011;75222;52.004;5.908;2024-03-17T10:29:18;5.32;;;2.92;;
42036;SDS011;75222;52.004;5.908;2024-03-17T10:32:16;6.43;;;3.80;;
42036;SDS011;75222;52.004;5.908;2024-03-17T10:34:42;4.03;;;3.05;;
42036;SDS011;75222;52.004;5.908;2024-03-17T10:37:18;4.45;;;3.42;;
42036;SDS011;75222;52.004;5.908;2024-03-17T10:39:50;4.97;;;3.40;;
42036;SDS011;75222;52.004;5.908;2024-03-17T10:42:22;4.35;;;3.10;;
42036;SDS011;75222;52.004;5.908;2024-03-17T10:44:50;3.83;;;2.53;;
42036;SDS011;75222;52.004;5.908;2024-03-17T10:47:24;3.28;;;2.40;;
42036;SDS011;75222;52.004;5.908;2024-03-17T10:49:51;4.00;;;2.90;;
42036;SDS011;75222;52.004;5.908;2024-03-17T10:52:19;3.97;;;3.05;;
42036;SDS011;75222;52.004;5.908;2024-03-17T10:54:48;5.35;;;3.05;;
42036;SDS011;75222;52.004;5.908;2024-03-17T10:59:46;6.18;;;3.30;;
42036;SDS011;75222;52.004;5.908;2024-03-17T11:02:23;4.82;;;3.10;;
42036;SDS011;75222;52.004;5.908;2024-03-17T11:04:51;4.90;;;2.90;;
42036;SDS011;75222;52.004;5.908;2024-03-17T11:07:18;4.60;;;3.15;;
42036;SDS011;75222;52.004;5.908;2024-03-17T11:09:45;4.20;;;2.88;;
42036;SDS011;75222;52.004;5.908;2024-03-17T11:17:55;3.92;;;2.90;;
42036;SDS011;75222;52.004;5.908;2024-03-17T11:20:34;2.92;;;2.15;;
42036;SDS011;75222;52.004;5.908;2024-03-17T11:23:02;5.13;;;2.80;;
42036;SDS011;75222;52.004;5.908;2024-03-17T11:38:53;4.32;;;3.08;;
42036;SDS011;75222;52.004;5.908;2024-03-17T11:46:39;4.97;;;2.92;;
42036;SDS011;75222;52.004;5.908;2024-03-17T11:49:05;4.72;;;2.80;;
42036;SDS011;75222;52.004;5.908;2024-03-17T11:51:33;6.25;;;3.90;;
42036;SDS011;75222;52.004;5.908;2024-03-17T11:54:00;4.28;;;2.83;;
42036;SDS011;75222;52.004;5.908;2024-03-17T11:56:26;4.75;;;3.30;;
42036;SDS011;75222;52.004;5.908;2024-03-17T11:59:05;3.92;;;2.90;;
42036;SDS011;75222;52.004;5.908;2024-03-17T12:01:34;4.18;;;2.67;;
42036;SDS011;75222;52.004;5.908;2024-03-17T12:03:59;3.53;;;2.72;;
42036;SDS011;75222;52.004;5.908;2024-03-17T12:06:30;4.82;;;2.88;;
42036;SDS011;75222;52.004;5.908;2024-03-17T12:09:17;5.40;;;3.60;;
42036;SDS011;75222;52.004;5.908;2024-03-17T12:12:09;4.45;;;3.08;;
42036;SDS011;75222;52.004;5.908;2024-03-17T12:14:39;3.03;;;2.10;;
42036;SDS011;75222;52.004;5.908;2024-03-17T12:17:06;3.83;;;2.60;;
42036;SDS011;75222;52.004;5.908;2024-03-17T12:19:33;4.35;;;3.22;;
42036;SDS011;75222;52.004;5.908;2024-03-17T12:21:59;4.60;;;2.95;;
42036;SDS011;75222;52.004;5.908;2024-03-17T12:24:30;6.60;;;3.17;;
42036;SDS011;75222;52.004;5.908;2024-03-17T12:26:57;5.57;;;3.28;;
42036;SDS011;75222;52.004;5.908;2024-03-17T12:29:31;5.23;;;3.10;;
42036;SDS011;75222;52.004;5.908;2024-03-17T12:32:01;4.10;;;2.75;;
42036;SDS011;75222;52.004;5.908;2024-03-17T12:34:29;3.70;;;2.80;;
42036;SDS011;75222;52.004;5.908;2024-03-17T12:36:56;4.00;;;2.95;;
42036;SDS011;75222;52.004;5.908;2024-03-17T12:39:24;4.28;;;2.88;;
42036;SDS011;75222;52.004;5.908;2024-03-17T12:42:06;3.72;;;2.60;;
42036;SDS011;75222;52.004;5.908;2024-03-17T12:44:35;3.85;;;2.55;;
42036;SDS011;75222;52.004;5.908;2024-03-17T12:47:08;5.03;;;3.20;;
42036;SDS011;75222;52.004;5.908;2024-03-17T12:49:44;3.60;;;2.92;;
42036;SDS011;75222;52.004;5.908;2024-03-17T12:54:44;6.38;;;3.25;;
42036;SDS011;75222;52.004;5.908;2024-03-17T12:57:17;4.03;;;2.63;;
42036;SDS011;75222;52.004;5.908;2024-03-17T13:00:16;4.00;;;2.58;;
42036;SDS011;75222;52.004;5.908;2024-03-17T13:03:23;4.78;;;3.15;;
42036;SDS011;75222;52.004;5.908;2024-03-17T13:05:59;4.47;;;3.13;;
42036;SDS011;75222;52.004;5.908;2024-03-17T13:08:29;5.18;;;3.20;;
42036;SDS011;75222;52.004;5.908;2024-03-17T13:10:56;4.32;;;3.17;;
42036;SDS011;75222;52.004;5.908;2024-03-17T13:13:22;5.38;;;3.60;;
42036;SDS011;75222;52.004;5.908;2024-03-17T13:15:48;3.55;;;2.53;;
42036;SDS011;75222;52.004;5.908;2024-03-17T13:18:16;4.07;;;2.60;;
42036;SDS011;75222;52.004;5.908;2024-03-17T13:23:11;5.38;;;3.50;;
42036;SDS011;75222;52.004;5.908;2024-03-17T13:25:37;7.07;;;3.53;;
42036;SDS011;75222;52.004;5.908;2024-03-17T13:28:03;5.95;;;3.35;;
42036;SDS011;75222;52.004;5.908;2024-03-17T13:30:31;4.78;;;2.90;;
42036;SDS011;75222;52.004;5.908;2024-03-17T13:32:58;4.05;;;2.60;;
42036;SDS011;75222;52.004;5.908;2024-03-17T13:35:25;5.72;;;3.10;;
42036;SDS011;75222;52.004;5.908;2024-03-17T13:37:54;4.95;;;2.75;;
42036;SDS011;75222;52.004;5.908;2024-03-17T13:40:24;4.45;;;2.80;;
42036;SDS011;75222;52.004;5.908;2024-03-17T13:42:51;4.18;;;2.70;;
42036;SDS011;75222;52.004;5.908;2024-03-17T13:45:18;4.63;;;2.70;;
42036;SDS011;75222;52.004;5.908;2024-03-17T13:48:07;3.33;;;2.40;;
42036;SDS011;75222;52.004;5.908;2024-03-17T13:50:35;5.47;;;3.28;;
42036;SDS011;75222;52.004;5.908;2024-03-17T13:53:01;5.38;;;3.10;;
42036;SDS011;75222;52.004;5.908;2024-03-17T13:55:28;5.07;;;2.95;;
42036;SDS011;75222;52.004;5.908;2024-03-17T13:57:55;3.85;;;2.58;;
42036;SDS011;75222;52.004;5.908;2024-03-17T14:00:22;6.40;;;2.88;;
42036;SDS011;75222;52.004;5.908;2024-03-17T14:02:50;4.10;;;2.40;;
42036;SDS011;75222;52.004;5.908;2024-03-17T14:05:17;4.28;;;2.50;;
42036;SDS011;75222;52.004;5.908;2024-03-17T14:07:46;5.60;;;2.40;;
42036;SDS011;75222;52.004;5.908;2024-03-17T14:10:14;3.63;;;2.50;;
42036;SDS011;75222;52.004;5.908;2024-03-17T14:12:41;3.97;;;2.33;;
42036;SDS011;75222;52.004;5.908;2024-03-17T14:15:07;4.50;;;2.53;;
42036;SDS011;75222;52.004;5.908;2024-03-17T14:17:40;4.60;;;2.17;;
42036;SDS011;75222;52.004;5.908;2024-03-17T14:20:06;3.35;;;2.28;;
42036;SDS011;75222;52.004;5.908;2024-03-17T14:22:44;5.47;;;2.53;;
42036;SDS011;75222;52.004;5.908;2024-03-17T14:25:14;5.18;;;2.40;;
42036;SDS011;75222;52.004;5.908;2024-03-17T14:27:42;4.80;;;2.00;;
42036;SDS011;75222;52.004;5.908;2024-03-17T14:30:08;4.22;;;2.60;;
42036;SDS011;75222;52.004;5.908;2024-03-17T14:32:38;6.90;;;2.90;;
42036;SDS011;75222;52.004;5.908;2024-03-17T14:35:04;6.40;;;3.00;;
42036;SDS011;75222;52.004;5.908;2024-03-17T14:37:30;5.07;;;2.33;;
42036;SDS011;75222;52.004;5.908;2024-03-17T14:39:56;4.60;;;2.65;;
42036;SDS011;75222;52.004;5.908;2024-03-17T14:42:21;4.93;;;2.88;;
42036;SDS011;75222;52.004;5.908;2024-03-17T14:44:47;6.75;;;3.50;;
42036;SDS011;75222;52.004;5.908;2024-03-17T14:47:13;6.22;;;3.03;;
42036;SDS011;75222;52.004;5.908;2024-03-17T14:49:39;6.70;;;3.17;;
42036;SDS011;75222;52.004;5.908;2024-03-17T14:52:06;6.18;;;2.90;;
42036;SDS011;75222;52.004;5.908;2024-03-17T14:54:32;4.20;;;2.80;;
42036;SDS011;75222;52.004;5.908;2024-03-17T14:56:58;4.72;;;2.80;;
42036;SDS011;75222;52.004;5.908;2024-03-17T14:59:23;3.80;;;2.13;;
42036;SDS011;75222;52.004;5.908;2024-03-17T15:01:49;3.88;;;2.58;;
42036;SDS011;75222;52.004;5.908;2024-03-17T15:04:14;4.75;;;2.63;;
42036;SDS011;75222;52.004;5.908;2024-03-17T15:06:41;4.78;;;2.95;;
42036;SDS011;75222;52.004;5.908;2024-03-17T15:09:08;5.07;;;2.95;;
42036;SDS011;75222;52.004;5.908;2024-03-17T15:11:34;6.90;;;3.00;;
42036;SDS011;75222;52.004;5.908;2024-03-17T15:14:00;4.80;;;2.78;;
42036;SDS011;75222;52.004;5.908;2024-03-17T15:16:25;5.72;;;2.83;;
42036;SDS011;75222;52.004;5.908;2024-03-17T15:18:51;4.13;;;2.85;;
42036;SDS011;75222;52.004;5.908;2024-03-17T15:21:16;5.80;;;3.35;;
42036;SDS011;75222;52.004;5.908;2024-03-17T15:23:42;5.00;;;2.50;;
42036;SDS011;75222;52.004;5.908;2024-03-17T15:26:08;4.57;;;2.92;;